Time;durP1;ratioP1;P1;durP2;ratioP2;P2;SDS_P1;SDS_P2;PMS_P1;PMS_P2;Temp;Humidity;BMP_temperature;BMP_pressure;BME280_temperature;BME280_humidity;BME280_pressure;Samples;Min_cycle;Max_cycle;Signal;HPM_P1;HPM_P2
2021/05/25 00:00:45;;;;;;;2.47;1.60;;;;;;;13.91;60.25;100164.84;5031762;28;20176;-73
2021/05/25 00:03:10;;;;;;;4.07;1.63;;;;;;;13.92;60.45;100166.53;5032989;28;20238;-73
2021/05/25 00:05:36;;;;;;;3.30;1.43;;;;;;;13.91;60.32;100170.19;5031843;28;20184;-73
2021/05/25 00:08:01;;;;;;;2.53;1.20;;;;;;;14.03;60.21;100164.72;5015036;28;20188;-74
2021/05/25 00:10:29;;;;;;;5.17;1.40;;;;;;;13.94;60.31;100176.19;5031758;28;20652;-74
2021/05/25 00:12:54;;;;;;;1.63;1.10;;;;;;;13.98;60.34;100177.66;5034423;28;20219;-74
2021/05/25 00:15:24;;;;;;;6.73;1.73;;;;;;;13.90;60.86;100174.72;5033601;28;20214;-74
2021/05/25 00:17:50;;;;;;;1.60;1.07;;;;;;;13.85;60.78;100178.72;5033500;28;20641;-74
2021/05/25 00:20:16;;;;;;;9.20;1.50;;;;;;;13.84;61.24;100168.97;5031913;28;20191;-73
2021/05/25 00:22:42;;;;;;;2.80;1.40;;;;;;;13.96;61.31;100168.03;5015328;28;20244;-73
2021/05/25 00:25:09;;;;;;;2.67;1.20;;;;;;;13.95;61.23;100161.78;5031299;28;20187;-74
2021/05/25 00:27:35;;;;;;;2.77;1.50;;;;;;;13.98;61.13;100172.28;5031418;28;20180;-74
2021/05/25 00:30:00;;;;;;;3.70;1.47;;;;;;;13.85;61.74;100171.53;5031301;28;20183;-73
2021/05/25 00:32:26;;;;;;;5.23;1.60;;;;;;;13.99;61.51;100176.69;5032687;28;20268;-74
2021/05/25 00:34:51;;;;;;;3.03;1.20;;;;;;;14.01;61.77;100177.41;5031402;28;20279;-73
2021/05/25 00:37:17;;;;;;;2.10;1.40;;;;;;;13.93;61.81;100173.63;5031223;28;20682;-72
2021/05/25 00:39:42;;;;;;;3.87;1.33;;;;;;;13.93;62.29;100171.78;5032434;28;20173;-71
2021/05/25 00:42:07;;;;;;;2.53;1.50;;;;;;;13.87;63.18;100172.28;5031515;28;20263;-72
2021/05/25 00:44:33;;;;;;;4.07;1.47;;;;;;;13.81;64.55;100180.78;5032634;28;20730;-73
2021/05/25 00:46:58;;;;;;;2.63;1.27;;;;;;;13.67;65.27;100173.78;5031302;28;20165;-73
2021/05/25 00:49:23;;;;;;;3.23;1.47;;;;;;;13.70;65.41;100178.06;5031372;28;20192;-73
2021/05/25 00:51:49;;;;;;;2.73;1.33;;;;;;;13.72;66.15;100176.97;5032622;28;20193;-73
2021/05/25 00:54:14;;;;;;;1.97;1.20;;;;;;;13.73;65.98;100185.88;5033465;28;20632;-73
2021/05/25 00:56:39;;;;;;;2.30;1.33;;;;;;;13.80;65.74;100178.22;5034866;28;20183;-73
2021/05/25 00:59:05;;;;;;;2.53;1.30;;;;;;;13.79;66.20;100182.75;5036498;28;20262;-73
2021/05/25 01:01:30;;;;;;;8.80;1.43;;;;;;;13.82;65.93;100187.00;5034734;28;20183;-72
2021/05/25 01:03:56;;;;;;;3.93;1.43;;;;;;;13.77;66.62;100190.06;5035387;28;20172;-73
2021/05/25 01:06:21;;;;;;;2.10;1.20;;;;;;;13.83;65.83;100196.78;5044785;28;20203;-73
2021/05/25 01:08:47;;;;;;;1.97;1.30;;;;;;;13.95;65.53;100193.13;5050561;28;20168;-74
2021/05/25 01:11:14;;;;;;;2.43;1.30;;;;;;;13.93;65.56;100195.94;5053350;28;20173;-73
2021/05/25 01:13:44;;;;;;;4.43;1.30;;;;;;;13.87;65.68;100200.94;5033901;28;20206;-73
2021/05/25 01:16:09;;;;;;;4.00;1.53;;;;;;;13.86;65.70;100200.06;5041285;28;20211;-73
2021/05/25 01:18:35;;;;;;;1.53;1.37;;;;;;;13.96;65.36;100193.03;5036012;28;20576;-73
2021/05/25 01:21:00;;;;;;;2.27;1.23;;;;;;;13.85;65.92;100193.00;5017777;28;20186;-73
2021/05/25 01:23:27;;;;;;;1.90;1.60;;;;;;;13.85;65.57;100209.09;5034233;28;20654;-74
2021/05/25 01:25:52;;;;;;;2.83;1.40;;;;;;;13.92;65.24;100204.09;5033841;28;20223;-73
2021/05/25 01:28:20;;;;;;;2.00;1.47;;;;;;;13.79;66.00;100217.59;5017437;28;20212;-73
2021/05/25 01:30:49;;;;;;;5.03;1.30;;;;;;;13.74;66.19;100212.56;5034936;28;20259;-73
2021/05/25 01:33:15;;;;;;;1.50;1.27;;;;;;;13.74;66.52;100212.56;5034167;28;20762;-72
2021/05/25 01:35:41;;;;;;;4.93;1.50;;;;;;;13.83;66.00;100219.09;5017258;28;20192;-72
2021/05/25 01:38:09;;;;;;;6.60;1.43;;;;;;;13.83;66.28;100220.91;5035078;28;20172;-74
2021/05/25 01:40:36;;;;;;;2.67;1.50;;;;;;;13.84;65.62;100218.09;5033690;28;20283;-73
2021/05/25 01:43:02;;;;;;;2.87;1.50;;;;;;;13.90;65.77;100220.31;5033981;28;20628;-73
2021/05/25 01:45:29;;;;;;;2.17;1.30;;;;;;;14.03;65.10;100218.41;5033499;28;20206;-73
2021/05/25 01:47:55;;;;;;;1.90;1.20;;;;;;;14.21;64.52;100226.88;5033562;28;20763;-73
2021/05/25 01:50:22;;;;;;;3.27;1.10;;;;;;;14.14;65.07;100222.09;5033354;28;20195;-73
2021/05/25 01:52:47;;;;;;;4.67;1.53;;;;;;;14.22;64.18;100225.03;5033297;28;20195;-73
2021/05/25 01:55:12;;;;;;;6.13;1.30;;;;;;;14.25;63.46;100238.22;5033114;28;20200;-73
2021/05/25 01:57:39;;;;;;;3.57;2.00;;;;;;;14.20;62.42;100238.59;5033368;28;20172;-73
2021/05/25 02:00:06;;;;;;;3.93;1.70;;;;;;;14.02;62.75;100243.50;5033534;28;20176;-73
2021/05/25 02:02:31;;;;;;;1.40;1.13;;;;;;;13.76;63.57;100247.34;5033234;28;20216;-72
2021/05/25 02:04:56;;;;;;;3.07;1.20;;;;;;;13.55;64.96;100246.25;5016695;28;20207;-72
2021/05/25 02:07:21;;;;;;;2.40;1.20;;;;;;;13.28;66.83;100257.19;5016541;28;20188;-72
2021/05/25 02:09:47;;;;;;;3.77;1.23;;;;;;;13.06;67.12;100257.88;5033712;28;20601;-72
2021/05/25 02:12:16;;;;;;;1.10;1.00;;;;;;;12.90;68.61;100255.41;5034545;28;20664;-72
2021/05/25 02:14:41;;;;;;;2.00;1.20;;;;;;;12.71;69.69;100265.75;5016792;28;20247;-72
2021/05/25 02:17:07;;;;;;;2.70;1.57;;;;;;;12.51;71.16;100264.44;5033146;28;20183;-72
2021/05/25 02:19:32;;;;;;;2.63;1.60;;;;;;;12.30;71.77;100263.28;5033244;28;20176;-72
2021/05/25 02:21:57;;;;;;;5.80;1.73;;;;;;;12.11;73.07;100264.53;5032990;28;20183;-72
2021/05/25 02:24:22;;;;;;;4.47;1.47;;;;;;;11.99;74.14;100270.72;5034196;28;20188;-73
2021/05/25 02:26:48;;;;;;;2.77;1.30;;;;;;;11.94;75.37;100278.19;5034554;28;20176;-72
2021/05/25 02:29:13;;;;;;;3.63;1.20;;;;;;;11.82;76.64;100270.97;5034353;28;20474;-72
2021/05/25 02:31:40;;;;;;;3.33;2.13;;;;;;;11.56;78.06;100264.66;5034526;28;20188;-72
2021/05/25 02:34:05;;;;;;;1.83;1.30;;;;;;;11.38;80.04;100249.81;5033348;28;20176;-73
2021/05/25 02:36:30;;;;;;;5.13;2.03;;;;;;;11.30;81.57;100247.66;5033649;28;20188;-72
2021/05/25 02:38:55;;;;;;;4.73;2.00;;;;;;;11.13;84.45;100256.75;5034137;28;20564;-73
2021/05/25 02:41:21;;;;;;;2.27;1.30;;;;;;;11.02;86.40;100247.72;5038490;28;20177;-72
2021/05/25 02:43:49;;;;;;;4.20;1.47;;;;;;;10.87;90.86;100247.75;5034544;28;20250;-72
2021/05/25 02:46:14;;;;;;;2.20;1.50;;;;;;;10.74;91.66;100238.78;5032189;28;20203;-72
2021/05/25 02:48:40;;;;;;;2.87;1.83;;;;;;;10.71;92.16;100236.31;5032596;28;20655;-72
2021/05/25 02:51:05;;;;;;;3.23;2.10;;;;;;;10.72;94.47;100223.81;5032783;28;20168;-72
2021/05/25 02:53:30;;;;;;;2.23;1.33;;;;;;;10.85;90.48;100214.94;5032211;28;20200;-71
2021/05/25 02:55:56;;;;;;;2.73;1.63;;;;;;;10.71;96.10;100230.09;5033407;28;20196;-72
2021/05/25 02:58:21;;;;;;;3.90;1.30;;;;;;;10.68;96.71;100224.97;5032508;28;20204;-72
2021/05/25 03:00:47;;;;;;;6.63;1.97;;;;;;;10.65;99.58;100223.34;5032049;28;20169;-72
2021/05/25 03:03:13;;;;;;;3.77;1.60;;;;;;;10.66;99.93;100222.41;5032415;28;20214;-72
2021/05/25 03:05:39;;;;;;;4.43;1.90;;;;;;;10.67;97.93;100229.44;5034337;28;20283;-72
2021/05/25 03:08:05;;;;;;;4.00;1.67;;;;;;;10.57;98.79;100229.16;5015655;28;20199;-73
2021/05/25 03:10:33;;;;;;;1.70;1.40;;;;;;;10.48;99.00;100234.22;5032304;28;20553;-72
2021/05/25 03:12:59;;;;;;;2.27;2.00;;;;;;;10.54;97.35;100239.19;5015517;28;20258;-72
2021/05/25 03:15:27;;;;;;;5.03;2.00;;;;;;;10.55;97.93;100238.22;5031896;28;20724;-72
2021/05/25 03:17:53;;;;;;;5.50;1.73;;;;;;;10.51;99.60;100236.72;5032202;28;20183;-72
2021/05/25 03:20:19;;;;;;;2.83;1.73;;;;;;;10.50;99.12;100240.31;5033394;28;20180;-72
2021/05/25 03:22:44;;;;;;;4.30;2.00;;;;;;;10.43;100.00;100241.66;5032342;28;20540;-72
2021/05/25 03:25:11;;;;;;;2.83;1.70;;;;;;;10.43;100.00;100245.19;5032111;28;20193;-73
2021/05/25 03:27:36;;;;;;;3.30;1.90;;;;;;;10.37;100.00;100247.34;5032490;28;20177;-74
2021/05/25 03:30:05;;;;;;;4.13;1.70;;;;;;;10.41;100.00;100248.91;5015441;28;20250;-72
2021/05/25 03:32:30;;;;;;;6.73;2.40;;;;;;;10.36;100.00;100243.81;5015349;28;20726;-72
2021/05/25 03:34:55;;;;;;;2.90;2.17;;;;;;;10.40;100.00;100239.16;5033189;28;20189;-73
2021/05/25 03:37:20;;;;;;;3.27;1.93;;;;;;;10.48;100.00;100228.91;5031727;28;20179;-72
2021/05/25 03:39:46;;;;;;;4.07;1.63;;;;;;;10.54;100.00;100231.19;5031807;28;20173;-73
2021/05/25 03:42:11;;;;;;;2.53;1.90;;;;;;;10.67;99.57;100226.78;5032158;28;20238;-71
2021/05/25 03:47:03;;;;;;;4.73;2.07;;;;;;;10.91;99.56;100235.91;5053589;22;20569;-69
2021/05/25 03:49:28;;;;;;;5.53;2.07;;;;;;;10.95;98.21;100229.41;5032969;28;20187;-69
2021/05/25 03:51:54;;;;;;;3.20;1.73;;;;;;;11.03;97.20;100233.41;5033248;28;20188;-68
2021/05/25 03:54:33;;;;;;;4.23;1.97;;;;;;;11.07;98.19;100235.78;5032688;28;20176;-68
2021/05/25 03:57:07;;;;;;;5.83;2.40;;;;;;;11.15;98.12;100238.84;5032840;28;20274;-68
2021/05/25 03:59:32;;;;;;;4.07;2.30;;;;;;;10.89;100.00;100245.84;5016423;28;20672;-68
2021/05/25 04:01:58;;;;;;;5.33;2.23;;;;;;;10.71;100.00;100252.31;5033655;28;20167;-68
2021/05/25 04:04:23;;;;;;;11.73;2.40;;;;;;;10.59;100.00;100253.94;5031684;28;20175;-69
2021/05/25 04:06:48;;;;;;;4.83;2.47;;;;;;;10.54;100.00;100249.84;5014849;28;20195;-69
2021/05/25 04:09:14;;;;;;;5.97;2.60;;;;;;;10.54;100.00;100255.19;5032373;28;20176;-68
2021/05/25 04:11:39;;;;;;;3.37;2.03;;;;;;;10.47;100.00;100265.38;5030663;28;20276;-69
2021/05/25 04:14:04;;;;;;;4.33;2.43;;;;;;;10.46;100.00;100269.00;5030675;28;20545;-69
2021/05/25 04:16:30;;;;;;;2.43;2.13;;;;;;;10.44;100.00;100264.72;5032399;28;20572;-69
2021/05/25 04:18:55;;;;;;;5.23;2.00;;;;;;;10.50;100.00;100270.53;5032827;28;20196;-69
2021/05/25 04:21:21;;;;;;;5.73;2.30;;;;;;;10.41;100.00;100263.09;5032778;28;20184;-69
2021/05/25 04:23:46;;;;;;;5.90;2.23;;;;;;;10.50;100.00;100264.34;5031132;28;20668;-69
2021/05/25 04:26:11;;;;;;;5.87;2.43;;;;;;;10.49;100.00;100270.63;5014738;28;20196;-69
2021/05/25 04:28:37;;;;;;;3.60;2.40;;;;;;;10.46;100.00;100266.34;5031022;28;20191;-69
2021/05/25 04:31:03;;;;;;;4.30;2.20;;;;;;;10.51;100.00;100264.25;5033685;28;20177;-69
2021/05/25 04:33:28;;;;;;;4.77;2.80;;;;;;;10.44;100.00;100268.25;5036060;28;20726;-69
2021/05/25 04:35:53;;;;;;;5.30;2.47;;;;;;;10.55;100.00;100268.44;5034622;28;20279;-69
2021/05/25 04:38:19;;;;;;;5.00;2.77;;;;;;;10.63;100.00;100254.63;5035982;28;20177;-69
2021/05/25 04:40:45;;;;;;;4.47;2.40;;;;;;;10.56;100.00;100263.97;5036388;28;20176;-70
2021/05/25 04:43:10;;;;;;;7.50;2.70;;;;;;;10.55;100.00;100263.09;5036378;28;20172;-68
2021/05/25 04:45:38;;;;;;;3.97;2.87;;;;;;;10.56;100.00;100259.47;5034865;28;20238;-69
2021/05/25 04:48:04;;;;;;;3.90;2.90;;;;;;;10.57;100.00;100255.00;5036093;28;20172;-68
2021/05/25 04:50:30;;;;;;;4.40;2.87;;;;;;;10.63;100.00;100265.28;5034594;28;20268;-68
2021/05/25 04:52:55;;;;;;;5.20;3.00;;;;;;;10.63;100.00;100267.97;5034275;28;20196;-68
2021/05/25 04:55:22;;;;;;;4.83;2.50;;;;;;;10.73;100.00;100271.75;5034481;28;20246;-68
2021/05/25 04:57:52;;;;;;;7.60;3.60;;;;;;;10.69;100.00;100266.72;5034567;28;20172;-68
2021/05/25 05:00:22;;;;;;;5.33;2.50;;;;;;;10.80;100.00;100267.78;5034078;28;20564;-69
2021/05/25 05:02:48;;;;;;;2.50;2.30;;;;;;;10.85;100.00;100265.69;5034096;28;20201;-69
2021/05/25 05:05:14;;;;;;;4.83;2.30;;;;;;;10.95;99.00;100261.47;5034238;28;20196;-70
2021/05/25 05:07:39;;;;;;;4.97;2.33;;;;;;;11.10;96.58;100264.09;5017787;28;20222;-68
2021/05/25 05:10:05;;;;;;;4.23;2.00;;;;;;;11.21;94.99;100259.81;5035258;28;20246;-68
2021/05/25 05:12:31;;;;;;;3.33;2.10;;;;;;;11.38;97.47;100249.81;5034069;28;20278;-71
2021/05/25 05:14:57;;;;;;;6.00;1.70;;;;;;;11.45;92.16;100254.66;5035599;28;20176;-68
2021/05/25 05:17:27;;;;;;;7.87;1.80;;;;;;;11.56;92.86;100262.84;5034339;28;20184;-69
2021/05/25 05:19:52;;;;;;;4.43;1.30;;;;;;;11.62;89.93;100255.38;5033738;28;20704;-69
2021/05/25 05:22:17;;;;;;;2.27;1.50;;;;;;;11.74;91.13;100251.88;5033778;28;20199;-69
2021/05/25 05:24:43;;;;;;;2.47;1.30;;;;;;;11.88;88.83;100262.53;5035609;28;20653;-69
2021/05/25 05:27:08;;;;;;;1.90;1.67;;;;;;;12.02;88.29;100270.50;5034791;28;20172;-72
2021/05/25 05:29:34;;;;;;;2.57;1.10;;;;;;;11.95;87.07;100261.19;5034903;28;20173;-69
2021/05/25 05:31:59;;;;;;;2.97;1.40;;;;;;;11.99;85.83;100259.16;5033575;28;20200;-70
2021/05/25 05:34:24;;;;;;;3.83;1.50;;;;;;;12.28;86.21;100257.19;5035695;28;20172;-70
2021/05/25 05:36:49;;;;;;;6.53;1.63;;;;;;;12.35;83.83;100258.47;5034035;28;20294;-70
2021/05/25 05:39:15;;;;;;;1.03;0.90;;;;;;;12.56;83.62;100258.78;5035159;28;20172;-69
2021/05/25 05:41:40;;;;;;;3.23;1.07;;;;;;;12.64;83.06;100267.13;5034343;28;20195;-69
2021/05/25 05:44:05;;;;;;;3.77;1.17;;;;;;;12.63;82.91;100263.56;5034866;28;20533;-69
2021/05/25 05:46:31;;;;;;;3.30;1.10;;;;;;;12.45;81.45;100267.56;5034533;28;20207;-69
2021/05/25 05:48:56;;;;;;;1.47;1.20;;;;;;;12.23;82.54;100261.97;5033314;28;20221;-68
2021/05/25 05:51:22;;;;;;;4.50;1.07;;;;;;;12.37;82.36;100269.91;5033191;28;20176;-69
2021/05/25 05:53:48;;;;;;;3.70;1.27;;;;;;;12.46;82.27;100271.94;5034516;28;20485;-69
2021/05/25 05:56:17;;;;;;;4.27;1.43;;;;;;;12.26;81.79;100267.09;5033142;28;20219;-69
2021/05/25 05:58:42;;;;;;;3.20;1.20;;;;;;;12.26;81.50;100259.94;5033210;28;20171;-69
2021/05/25 06:01:09;;;;;;;2.90;1.17;;;;;;;12.27;82.06;100259.00;5034211;28;20177;-69
2021/05/25 06:03:35;;;;;;;3.13;1.50;;;;;;;12.32;82.55;100256.00;5034112;28;20291;-70
2021/05/25 06:06:00;;;;;;;2.30;1.20;;;;;;;12.41;81.82;100260.72;5034332;28;20196;-69
2021/05/25 06:08:25;;;;;;;3.07;1.10;;;;;;;12.42;81.95;100259.75;5034211;28;20525;-68
2021/05/25 06:10:51;;;;;;;4.50;1.60;;;;;;;12.31;82.00;100265.00;5016402;28;20187;-69
2021/05/25 06:13:20;;;;;;;2.77;1.10;;;;;;;12.55;81.67;100254.38;5032799;28;20207;-69
2021/05/25 06:15:45;;;;;;;6.17;1.27;;;;;;;12.69;81.29;100244.44;5032938;28;20188;-69
2021/05/25 06:18:11;;;;;;;5.40;1.57;;;;;;;13.22;79.15;100234.38;5032863;28;20587;-69
2021/05/25 06:20:36;;;;;;;5.73;1.00;;;;;;;13.59;78.55;100228.97;5016779;28;20173;-69
2021/05/25 06:23:01;;;;;;;1.77;0.93;;;;;;;13.79;75.91;100227.47;5032767;28;20208;-69
2021/05/25 06:25:27;;;;;;;1.63;1.10;;;;;;;13.66;73.51;100240.94;5033805;28;20195;-68
2021/05/25 06:27:53;;;;;;;2.47;1.30;;;;;;;13.71;75.16;100241.44;5032605;28;20199;-70
2021/05/25 06:30:19;;;;;;;2.23;1.33;;;;;;;13.71;74.82;100254.84;5033745;28;20172;-68
2021/05/25 06:32:44;;;;;;;1.73;0.90;;;;;;;13.89;73.40;100245.44;5033574;28;20203;-68
2021/05/25 06:35:10;;;;;;;1.33;1.20;;;;;;;13.84;73.91;100247.63;5033812;28;20207;-69
2021/05/25 06:37:35;;;;;;;3.10;1.27;;;;;;;13.75;73.23;100251.84;5033687;28;20251;-70
2021/05/25 06:40:01;;;;;;;2.30;1.10;;;;;;;13.77;74.46;100257.97;5032706;28;20564;-68
2021/05/25 06:42:26;;;;;;;2.80;1.20;;;;;;;13.67;74.65;100251.53;5032425;28;20176;-69
2021/05/25 06:44:51;;;;;;;3.10;1.13;;;;;;;13.81;74.22;100266.63;5033421;28;20172;-69
2021/05/25 06:47:17;;;;;;;2.00;1.40;;;;;;;13.64;75.08;100272.38;5032316;28;20706;-68
2021/05/25 06:49:42;;;;;;;3.40;1.20;;;;;;;13.15;76.42;100267.91;5033972;28;20541;-68
2021/05/25 06:52:09;;;;;;;2.57;1.10;;;;;;;13.55;74.90;100275.75;5031986;28;20254;-68
2021/05/25 06:54:34;;;;;;;2.83;1.20;;;;;;;13.41;76.03;100269.59;5033504;28;20637;-69
2021/05/25 06:57:00;;;;;;;2.73;1.30;;;;;;;13.37;76.23;100277.94;5032886;28;20203;-69
2021/05/25 06:59:25;;;;;;;1.43;1.30;;;;;;;12.76;79.86;100283.19;5034119;28;20317;-69
2021/05/25 07:01:50;;;;;;;3.10;1.40;;;;;;;12.42;83.73;100284.69;5033923;28;20177;-69
2021/05/25 07:04:16;;;;;;;1.77;1.43;;;;;;;12.27;86.47;100264.34;5032720;28;20183;-69
2021/05/25 07:06:41;;;;;;;3.40;1.53;;;;;;;12.01;88.89;100274.13;5015775;28;20202;-69
2021/05/25 07:09:06;;;;;;;3.10;1.60;;;;;;;11.87;87.99;100266.16;5033388;28;20173;-69
2021/05/25 07:11:31;;;;;;;4.67;1.50;;;;;;;11.87;90.15;100268.84;5031728;28;20588;-69
2021/05/25 07:13:57;;;;;;;2.17;1.90;;;;;;;11.85;90.86;100262.75;5033422;28;20687;-70
2021/05/25 07:16:23;;;;;;;3.13;1.50;;;;;;;11.69;91.19;100267.38;5033697;28;20223;-70
2021/05/25 07:18:49;;;;;;;4.63;1.90;;;;;;;11.76;90.45;100274.88;5034648;28;20596;-71
2021/05/25 07:21:14;;;;;;;3.53;1.87;;;;;;;11.73;90.65;100279.56;5031894;28;20172;-69
2021/05/25 07:23:39;;;;;;;3.60;2.00;;;;;;;11.69;91.33;100294.13;5031785;28;20196;-68
2021/05/25 07:26:05;;;;;;;3.20;1.73;;;;;;;11.62;91.45;100290.13;5031653;28;20195;-70
2021/05/25 07:28:31;;;;;;;4.43;1.60;;;;;;;11.62;91.52;100295.47;5033190;28;20184;-69
2021/05/25 07:30:56;;;;;;;5.73;2.07;;;;;;;11.22;92.88;100306.06;5031643;28;20187;-69
2021/05/25 07:33:24;;;;;;;2.90;1.73;;;;;;;11.48;90.01;100304.38;5031695;28;20210;-68
2021/05/25 07:35:49;;;;;;;6.23;1.87;;;;;;;11.59;87.81;100310.75;5031730;28;20302;-69
2021/05/25 07:38:14;;;;;;;6.67;1.80;;;;;;;11.64;84.28;100313.13;5032931;28;20692;-69
2021/05/25 07:40:42;;;;;;;2.80;1.70;;;;;;;11.66;82.61;100316.56;5031766;28;20254;-69
2021/05/25 07:43:07;;;;;;;2.07;1.47;;;;;;;11.78;82.00;100325.63;5015398;28;20202;-69
2021/05/25 07:45:32;;;;;;;3.53;2.00;;;;;;;11.78;80.60;100328.28;5031283;28;20199;-69
2021/05/25 07:47:58;;;;;;;3.03;1.73;;;;;;;11.76;79.86;100325.69;5031584;28;20173;-68
2021/05/25 07:50:23;;;;;;;3.63;1.90;;;;;;;11.84;77.76;100325.19;5032836;28;20179;-68
2021/05/25 07:52:50;;;;;;;2.13;1.67;;;;;;;12.02;76.36;100333.84;5033043;28;20196;-68
2021/05/25 07:55:20;;;;;;;2.23;1.30;;;;;;;12.09;74.17;100341.34;5015329;28;20529;-68
2021/05/25 07:57:46;;;;;;;2.03;1.40;;;;;;;12.29;72.93;100336.47;5033002;28;20247;-68
2021/05/25 08:00:12;;;;;;;3.43;1.60;;;;;;;12.26;73.04;100336.66;5032658;28;20172;-68
2021/05/25 08:02:41;;;;;;;2.47;1.83;;;;;;;12.17;73.47;100338.16;5033209;28;20176;-69
2021/05/25 08:05:07;;;;;;;2.77;1.67;;;;;;;12.01;75.09;100341.00;5035455;28;20592;-69
2021/05/25 08:07:33;;;;;;;4.30;1.57;;;;;;;11.86;76.00;100334.84;5037605;28;20249;-69
2021/05/25 08:09:58;;;;;;;4.70;1.67;;;;;;;11.85;76.28;100338.47;5037866;28;20632;-69
2021/05/25 08:12:23;;;;;;;1.27;1.17;;;;;;;11.89;75.81;100339.13;5037443;28;20279;-69
2021/05/25 08:14:50;;;;;;;2.10;1.23;;;;;;;11.86;75.62;100334.84;5019049;28;20569;-69
2021/05/25 08:17:22;;;;;;;3.80;1.70;;;;;;;11.82;76.54;100340.50;5035532;28;20200;-69
2021/05/25 08:19:49;;;;;;;2.40;1.53;;;;;;;11.79;76.82;100341.56;5036677;28;20223;-69
2021/05/25 08:22:15;;;;;;;3.83;1.70;;;;;;;11.71;76.40;100325.13;5036602;28;20572;-70
2021/05/25 08:24:40;;;;;;;3.10;1.63;;;;;;;11.62;76.56;100322.22;5036568;28;20184;-69
2021/05/25 08:27:06;;;;;;;2.80;1.63;;;;;;;11.56;77.38;100318.97;5035464;28;20172;-70
2021/05/25 08:29:31;;;;;;;3.30;1.60;;;;;;;11.50;78.38;100330.03;5035422;28;20650;-69
2021/05/25 08:31:56;;;;;;;3.27;1.60;;;;;;;11.53;76.89;100337.03;5035643;28;20734;-70
2021/05/25 08:34:24;;;;;;;2.07;1.30;;;;;;;11.61;78.32;100347.22;5036502;28;20169;-69
2021/05/25 08:36:49;;;;;;;3.87;2.03;;;;;;;11.63;78.26;100356.00;5035055;28;20188;-70
2021/05/25 08:39:15;;;;;;;2.53;1.53;;;;;;;11.66;77.15;100358.47;5035073;28;20226;-69
2021/05/25 08:41:40;;;;;;;4.17;1.57;;;;;;;11.58;77.45;100364.31;5018715;28;20179;-70
2021/05/25 08:44:05;;;;;;;3.37;1.70;;;;;;;11.66;77.54;100363.81;5035255;28;20172;-69
2021/05/25 08:46:32;;;;;;;2.67;1.60;;;;;;;11.74;76.99;100356.16;5018277;28;20216;-72
2021/05/25 08:48:57;;;;;;;1.73;1.20;;;;;;;11.89;74.90;100360.50;5035112;28;20180;-70
2021/05/25 08:51:23;;;;;;;2.37;1.30;;;;;;;12.02;75.13;100357.91;5035544;28;20165;-70
2021/05/25 08:53:48;;;;;;;1.53;1.10;;;;;;;12.09;75.55;100357.41;5036724;28;20183;-69
2021/05/25 08:56:13;;;;;;;2.47;1.00;;;;;;;12.23;73.50;100366.31;5037062;28;20230;-68
2021/05/25 08:58:39;;;;;;;1.50;1.23;;;;;;;12.41;72.75;100359.72;5036126;28;20172;-69
2021/05/25 09:01:04;;;;;;;2.60;1.73;;;;;;;12.49;72.83;100370.75;5036320;28;20184;-69
2021/05/25 09:03:31;;;;;;;2.20;1.67;;;;;;;12.49;71.55;100366.25;5018905;28;20199;-69
2021/05/25 09:06:07;;;;;;;2.80;1.87;;;;;;;12.47;69.45;100373.53;5034549;28;20197;-69
2021/05/25 09:08:33;;;;;;;2.20;1.27;;;;;;;12.45;69.15;100390.66;5035991;28;20190;-69
2021/05/25 09:11:05;;;;;;;1.63;1.20;;;;;;;12.48;69.39;100380.63;5035905;28;20557;-70
2021/05/25 09:13:30;;;;;;;2.00;1.40;;;;;;;12.47;68.34;100388.75;5035137;28;20222;-70
2021/05/25 09:16:02;;;;;;;2.00;1.50;;;;;;;12.37;68.20;100387.66;5034624;28;20196;-68
2021/05/25 09:18:29;;;;;;;1.33;1.20;;;;;;;12.29;67.87;100384.66;5034782;28;20631;-69
2021/05/25 09:21:01;;;;;;;3.10;1.43;;;;;;;11.88;72.41;100412.28;5034644;28;20533;-70
2021/05/25 09:23:33;;;;;;;2.43;1.77;;;;;;;10.99;78.25;100421.47;5035313;28;20191;-69
2021/05/25 09:26:09;;;;;;;3.43;2.23;;;;;;;10.49;83.35;100393.38;5035380;28;20195;-68
2021/05/25 09:28:35;;;;;;;5.27;2.40;;;;;;;10.26;85.32;100400.03;5018581;28;20160;-69
2021/05/25 09:31:03;;;;;;;5.23;2.40;;;;;;;10.25;88.43;100388.50;5035750;28;20179;-69
2021/05/25 09:33:29;;;;;;;5.00;2.83;;;;;;;10.25;89.78;100398.31;5035414;28;20219;-68
2021/05/25 09:35:55;;;;;;;7.23;4.57;;;;;;;10.28;92.56;100388.34;5035464;28;20564;-68
2021/05/25 09:38:25;;;;;;;4.43;3.43;;;;;;;10.38;94.11;100404.66;5035226;28;20168;-70
2021/05/25 09:40:51;;;;;;;4.87;2.60;;;;;;;10.28;94.04;100382.13;5035145;28;20595;-71
2021/05/25 09:43:31;;;;;;;3.60;2.37;;;;;;;10.38;94.14;100393.13;5033843;28;20252;-69
2021/05/25 09:46:07;;;;;;;4.93;2.80;;;;;;;10.33;95.30;100386.25;5036491;28;20207;-70
2021/05/25 09:48:51;;;;;;;3.37;3.07;;;;;;;10.32;95.26;100392.53;5034703;28;20586;-71
2021/05/25 09:51:25;;;;;;;4.07;2.23;;;;;;;10.26;96.31;100395.56;5034196;28;20191;-70
2021/05/25 09:53:50;;;;;;;5.17;2.33;;;;;;;10.18;96.43;100389.78;5035228;28;20259;-69
2021/05/25 09:56:24;;;;;;;3.57;2.83;;;;;;;10.19;96.25;100393.31;5017272;28;20283;-70
2021/05/25 09:58:50;;;;;;;3.50;2.40;;;;;;;10.17;95.68;100404.06;5035239;28;20187;-70
2021/05/25 10:01:15;;;;;;;2.63;2.07;;;;;;;10.27;93.80;100391.09;5017774;28;20176;-70
2021/05/25 10:03:52;;;;;;;3.70;2.10;;;;;;;10.34;94.80;100385.28;5034152;28;20169;-70
2021/05/25 10:06:19;;;;;;;2.77;2.30;;;;;;;10.65;93.83;100394.16;5036633;28;20628;-69
2021/05/25 10:08:45;;;;;;;3.53;2.60;;;;;;;10.89;93.02;100392.69;5036394;28;20184;-69
2021/05/25 10:11:14;;;;;;;4.77;2.00;;;;;;;10.88;92.45;100396.31;5035415;28;20257;-69
2021/05/25 10:13:40;;;;;;;2.27;1.93;;;;;;;10.89;89.52;100395.34;5017008;28;20196;-69
2021/05/25 10:16:06;;;;;;;3.23;1.90;;;;;;;10.97;88.97;100386.88;5033662;28;20538;-69
2021/05/25 10:18:38;;;;;;;2.83;1.67;;;;;;;11.09;88.87;100385.25;5033471;28;20176;-69
2021/05/25 10:21:05;;;;;;;1.67;1.57;;;;;;;11.30;89.76;100385.72;5033874;28;20243;-69
2021/05/25 10:23:34;;;;;;;2.20;1.90;;;;;;;11.51;87.77;100384.34;5033755;28;20711;-69
2021/05/25 10:26:06;;;;;;;3.00;1.20;;;;;;;11.51;89.40;100384.34;5035092;28;20196;-68
2021/05/25 10:28:31;;;;;;;2.50;1.27;;;;;;;11.68;82.67;100375.28;5033868;28;20212;-70
2021/05/25 10:30:58;;;;;;;3.13;1.23;;;;;;;12.88;76.64;100369.84;5034523;28;20169;-69
2021/05/25 10:33:28;;;;;;;1.03;0.90;;;;;;;12.91;68.33;100379.47;5040008;28;20219;-69
2021/05/25 10:36:02;;;;;;;2.43;1.80;;;;;;;13.98;68.92;100389.59;5035383;28;20219;-70
2021/05/25 10:38:43;;;;;;;3.90;1.30;;;;;;;14.36;65.89;100391.25;5035452;28;20156;-70
2021/05/25 10:41:08;;;;;;;4.13;1.20;;;;;;;15.21;59.99;100390.00;5034010;28;20184;-70
2021/05/25 10:43:46;;;;;;;2.13;1.30;;;;;;;15.41;62.54;100390.28;5033863;28;20170;-70
2021/05/25 10:46:11;;;;;;;2.30;1.10;;;;;;;15.44;59.85;100384.66;5033428;28;20207;-69
2021/05/25 10:48:49;;;;;;;1.60;0.93;;;;;;;15.06;61.17;100377.81;5035395;28;20495;-70
2021/05/25 10:51:15;;;;;;;3.67;1.10;;;;;;;14.69;59.80;100382.50;5033835;28;20176;-70
2021/05/25 10:53:40;;;;;;;3.80;1.30;;;;;;;14.22;58.58;100372.66;5035654;28;20568;-70
2021/05/25 10:56:23;;;;;;;1.63;1.00;;;;;;;13.82;61.25;100372.09;5034400;28;20196;-70
2021/05/25 10:59:04;;;;;;;1.60;1.07;;;;;;;14.76;59.75;100372.13;5034276;28;20240;-70
2021/05/25 11:01:30;;;;;;;2.67;1.03;;;;;;;14.99;58.46;100379.25;5033860;28;20180;-70
2021/05/25 11:04:08;;;;;;;2.43;1.10;;;;;;;15.23;57.83;100380.00;5032908;28;20327;-70
2021/05/25 11:06:34;;;;;;;2.87;1.00;;;;;;;15.53;56.78;100383.91;5033208;28;20191;-70
2021/05/25 11:09:22;;;;;;;1.00;0.90;;;;;;;16.63;54.18;100374.78;5034144;28;20594;-70
2021/05/25 11:12:15;;;;;;;0.93;0.90;;;;;;;18.46;45.20;100363.84;5032993;28;20251;-70
2021/05/25 11:15:13;;;;;;;1.63;0.97;;;;;;;18.17;46.63;100359.28;5032657;28;20176;-70
2021/05/25 11:17:39;;;;;;;0.80;0.60;;;;;;;16.37;50.32;100360.88;5033019;28;20172;-69
2021/05/25 11:20:53;;;;;;;2.57;0.80;;;;;;;18.20;46.33;100363.53;5034730;28;20536;-70
2021/05/25 11:23:38;;;;;;;1.03;0.70;;;;;;;15.55;51.88;100361.28;5033070;28;20609;-70
2021/05/25 11:26:04;;;;;;;1.00;0.70;;;;;;;15.04;54.07;100369.00;5032838;28;20196;-70